createdAt,value
2023-03-29T00:00:11.141Z,66.47
2023-03-29T00:01:11.211Z,65.70
2023-03-29T00:02:12.328Z,65.82
2023-03-29T00:03:11.634Z,66.30
2023-03-29T00:04:11.736Z,66.18
2023-03-29T00:05:11.721Z,65.88
2023-03-29T00:06:11.861Z,66.61
2023-03-29T00:07:11.967Z,64.92
2023-03-29T00:08:12.124Z,64.71
2023-03-29T00:09:12.256Z,64.44
2023-03-29T00:10:12.378Z,64.81
2023-03-29T00:11:12.522Z,65.16
2023-03-29T00:12:12.606Z,63.92
2023-03-29T00:13:12.765Z,64.10
2023-03-29T00:14:12.932Z,64.69
2023-03-29T00:15:13.055Z,64.59
2023-03-29T00:16:13.228Z,64.44
2023-03-29T00:17:13.300Z,64.48
2023-03-29T00:18:13.435Z,64.65
2023-03-29T00:19:13.500Z,64.12
2023-03-29T00:20:13.670Z,63.98
2023-03-29T00:21:13.812Z,63.82
2023-03-29T00:22:13.966Z,64.38
2023-03-29T00:23:14.050Z,64.13
2023-03-29T00:24:14.241Z,63.66
2023-03-29T00:25:14.323Z,64.11
2023-03-29T00:26:14.508Z,63.62
2023-03-29T00:27:14.660Z,63.95
2023-03-29T00:28:14.753Z,64.14
2023-03-29T00:29:14.912Z,64.02
2023-03-29T00:30:14.994Z,63.63
2023-03-29T00:31:15.181Z,63.48
2023-03-29T00:32:15.287Z,63.58
2023-03-29T00:33:15.401Z,64.00
2023-03-29T00:34:15.525Z,63.62
2023-03-29T00:35:15.625Z,63.76
2023-03-29T00:36:15.801Z,63.63
2023-03-29T00:37:15.987Z,63.74
2023-03-29T00:38:16.040Z,63.44
2023-03-29T00:39:16.204Z,63.47
2023-03-29T00:40:16.323Z,63.97
2023-03-29T00:41:16.436Z,63.41
2023-03-29T00:42:16.581Z,63.08
2023-03-29T00:43:16.733Z,63.42
2023-03-29T00:44:16.830Z,63.27
2023-03-29T00:45:16.983Z,63.02
2023-03-29T00:46:17.127Z,63.28
2023-03-29T00:47:17.199Z,63.13
2023-03-29T00:48:17.378Z,62.99
2023-03-29T00:49:17.537Z,63.21
2023-03-29T00:50:17.598Z,62.88
2023-03-29T00:51:17.709Z,63.15
2023-03-29T00:52:17.825Z,63.15
2023-03-29T00:53:18.048Z,63.23
2023-03-29T00:54:18.108Z,63.07
2023-03-29T00:55:18.200Z,63.36
2023-03-29T00:56:18.332Z,63.32
2023-03-29T00:57:18.659Z,63.20
2023-03-29T00:58:18.586Z,63.34
2023-03-29T00:59:18.752Z,63.10
2023-03-29T01:00:18.795Z,63.25
2023-03-29T01:01:18.966Z,63.29
2023-03-29T01:02:19.088Z,63.12
2023-03-29T01:03:19.342Z,63.62
2023-03-29T01:04:19.299Z,63.45
2023-03-29T01:05:19.464Z,63.06
2023-03-29T01:06:19.554Z,62.92
2023-03-29T01:07:19.695Z,63.24
2023-03-29T01:08:19.880Z,62.98
2023-03-29T01:09:19.929Z,63.17
2023-03-29T01:10:20.120Z,63.19
2023-03-29T01:11:20.205Z,63.15
2023-03-29T01:12:20.342Z,63.25
2023-03-29T01:13:20.530Z,63.19
2023-03-29T01:14:20.616Z,63.15
2023-03-29T01:15:20.792Z,63.25
2023-03-29T01:16:20.941Z,63.45
2023-03-29T01:17:21.014Z,63.37
2023-03-29T01:18:21.178Z,63.50
2023-03-29T01:19:21.280Z,63.46
2023-03-29T01:20:21.508Z,63.50
2023-03-29T01:21:21.566Z,63.50
2023-03-29T01:22:21.698Z,63.53
2023-03-29T01:23:21.845Z,63.62
2023-03-29T01:24:22.035Z,63.44
2023-03-29T01:25:22.198Z,63.43
2023-03-29T01:26:22.221Z,63.78
2023-03-29T01:27:22.361Z,63.88
2023-03-29T01:28:22.501Z,64.19
2023-03-29T01:29:22.644Z,64.24
2023-03-29T01:30:22.828Z,64.54
2023-03-29T01:31:22.974Z,64.49
2023-03-29T01:32:23.085Z,64.24
2023-03-29T01:33:23.210Z,64.42
2023-03-29T01:34:23.346Z,64.62
2023-03-29T01:35:23.568Z,64.57
2023-03-29T01:36:23.660Z,64.17
2023-03-29T01:37:23.767Z,64.12
2023-03-29T01:38:23.880Z,64.19
2023-03-29T01:39:24.002Z,63.98
2023-03-29T01:40:24.340Z,64.34
2023-03-29T01:41:24.282Z,64.11
2023-03-29T01:42:24.377Z,64.16
2023-03-29T01:43:24.526Z,63.86
2023-03-29T01:44:24.657Z,64.46
2023-03-29T01:45:24.753Z,63.96
2023-03-29T01:46:24.951Z,64.14
2023-03-29T01:47:25.003Z,64.29
2023-03-29T01:48:25.169Z,64.40
2023-03-29T01:49:25.259Z,64.23
2023-03-29T01:50:25.398Z,64.26
2023-03-29T01:51:25.534Z,64.35
2023-03-29T01:52:25.642Z,64.05
2023-03-29T01:53:25.758Z,63.67
2023-03-29T01:54:25.857Z,63.58
2023-03-29T01:55:25.981Z,63.58
2023-03-29T01:56:26.147Z,63.36
2023-03-29T01:57:26.194Z,62.92
2023-03-29T01:58:26.368Z,63.19
2023-03-29T01:59:26.431Z,62.92
2023-03-29T02:00:26.584Z,63.04
2023-03-29T02:01:26.811Z,62.96
2023-03-29T02:02:27.033Z,62.71
2023-03-29T02:03:27.199Z,62.60
2023-03-29T02:04:27.103Z,62.52
2023-03-29T02:05:27.256Z,62.49
2023-03-29T02:06:27.381Z,62.72
2023-03-29T02:07:27.499Z,62.50
2023-03-29T02:08:27.610Z,62.65
2023-03-29T02:09:27.749Z,62.50
2023-03-29T02:10:27.968Z,62.39
2023-03-29T02:11:28.092Z,62.65
2023-03-29T02:12:28.152Z,62.91
2023-03-29T02:13:28.248Z,62.70
2023-03-29T02:14:28.407Z,62.47
2023-03-29T02:15:28.558Z,62.33
2023-03-29T02:16:28.704Z,62.43
2023-03-29T02:17:28.821Z,62.26
2023-03-29T02:18:28.893Z,62.32
2023-03-29T02:19:29.035Z,62.28
2023-03-29T02:20:29.175Z,62.09
2023-03-29T02:21:29.352Z,62.33
2023-03-29T02:22:29.440Z,62.46
2023-03-29T02:23:29.569Z,62.74
2023-03-29T02:24:29.713Z,62.54
2023-03-29T02:25:29.857Z,62.67
2023-03-29T02:26:30.027Z,62.69
2023-03-29T02:27:30.126Z,62.55
2023-03-29T02:28:30.293Z,62.89
2023-03-29T02:29:30.396Z,62.52
2023-03-29T02:30:30.513Z,62.60
2023-03-29T02:31:30.691Z,62.66
2023-03-29T02:32:30.816Z,62.71
2023-03-29T02:33:30.868Z,62.75
2023-03-29T02:34:31.029Z,62.33
2023-03-29T02:35:31.163Z,62.53
2023-03-29T02:36:31.295Z,62.66
2023-03-29T02:37:31.415Z,62.20
2023-03-29T02:38:31.542Z,62.37
2023-03-29T02:39:31.640Z,62.25
2023-03-29T02:40:31.741Z,62.45
2023-03-29T02:41:31.888Z,62.67
2023-03-29T02:42:32.145Z,62.39
2023-03-29T02:43:32.165Z,62.69
2023-03-29T02:44:32.327Z,62.57
2023-03-29T02:45:32.507Z,62.75
2023-03-29T02:46:32.553Z,62.77
2023-03-29T02:47:32.818Z,62.51
2023-03-29T02:48:32.904Z,62.47
2023-03-29T02:49:32.954Z,62.77
2023-03-29T02:50:33.100Z,62.38
2023-03-29T02:51:33.236Z,62.48
2023-03-29T02:52:33.416Z,62.30
2023-03-29T02:53:33.452Z,62.48
2023-03-29T02:54:33.595Z,62.50
2023-03-29T02:55:33.770Z,62.35
2023-03-29T02:56:33.917Z,62.40
2023-03-29T02:57:34.050Z,62.17
2023-03-29T02:58:34.244Z,62.30
2023-03-29T02:59:34.261Z,62.33
2023-03-29T03:00:34.410Z,62.13
2023-03-29T03:01:34.532Z,62.46
2023-03-29T03:02:34.702Z,62.40
2023-03-29T03:03:34.882Z,62.49
2023-03-29T03:04:34.892Z,62.48
2023-03-29T03:05:35.109Z,62.42
2023-03-29T03:06:35.109Z,62.39
2023-03-29T03:07:35.284Z,62.29
2023-03-29T03:08:35.421Z,62.16
2023-03-29T03:09:35.502Z,62.26
2023-03-29T03:10:35.630Z,62.23
2023-03-29T03:11:35.766Z,62.13
2023-03-29T03:12:35.947Z,62.37
2023-03-29T03:13:36.032Z,62.50
2023-03-29T03:14:36.163Z,62.57
2023-03-29T03:15:36.279Z,62.51
2023-03-29T03:16:36.432Z,62.20
2023-03-29T03:17:36.585Z,62.45
2023-03-29T03:18:36.647Z,62.25
2023-03-29T03:19:36.810Z,62.63
2023-03-29T03:20:36.922Z,62.66
2023-03-29T03:21:36.983Z,62.57
2023-03-29T03:22:37.117Z,62.41
2023-03-29T03:23:37.202Z,62.42
2023-03-29T03:24:37.322Z,62.68
2023-03-29T03:25:37.514Z,62.59
2023-03-29T03:26:37.526Z,62.55
2023-03-29T03:27:37.646Z,62.60
2023-03-29T03:28:37.781Z,62.89
2023-03-29T03:29:37.914Z,62.76
2023-03-29T03:30:38.009Z,62.77
2023-03-29T03:31:38.188Z,62.80
2023-03-29T03:32:38.292Z,62.75
2023-03-29T03:33:38.364Z,63.14
2023-03-29T03:34:38.537Z,63.15
2023-03-29T03:35:38.664Z,63.07
2023-03-29T03:36:38.708Z,63.12
2023-03-29T03:37:38.867Z,63.09
2023-03-29T03:38:38.929Z,63.25
2023-03-29T03:39:39.078Z,63.12
2023-03-29T03:40:39.156Z,63.33
2023-03-29T03:41:39.270Z,63.29
2023-03-29T03:42:39.423Z,63.36
2023-03-29T03:43:39.481Z,63.30
2023-03-29T03:44:39.641Z,63.21
2023-03-29T03:45:39.759Z,63.46
2023-03-29T03:46:39.870Z,63.33
2023-03-29T03:47:39.981Z,63.42
2023-03-29T03:48:40.076Z,63.36
2023-03-29T03:49:40.195Z,63.34
2023-03-29T03:50:40.303Z,63.26
2023-03-29T03:51:40.447Z,63.60
2023-03-29T03:52:40.539Z,63.55
2023-03-29T03:53:40.615Z,63.65
2023-03-29T03:54:40.864Z,63.54
2023-03-29T03:55:40.853Z,63.64
2023-03-29T03:56:41.068Z,63.37
2023-03-29T03:57:41.097Z,63.70
2023-03-29T03:58:41.155Z,63.78
2023-03-29T03:59:41.304Z,63.70
2023-03-29T04:00:41.392Z,63.50
2023-03-29T04:01:41.549Z,63.45
2023-03-29T04:02:41.748Z,63.41
2023-03-29T04:03:41.842Z,63.76
2023-03-29T04:04:41.862Z,63.63
2023-03-29T04:05:42.019Z,63.65
2023-03-29T04:06:43.667Z,63.55
2023-03-29T04:07:42.204Z,63.60
2023-03-29T04:08:42.323Z,63.53
2023-03-29T04:09:42.411Z,63.94
2023-03-29T04:10:42.572Z,64.10
2023-03-29T04:11:42.655Z,63.95
2023-03-29T04:12:42.732Z,63.63
2023-03-29T04:13:42.840Z,64.09
2023-03-29T04:14:43.090Z,64.05
2023-03-29T04:15:43.082Z,64.06
2023-03-29T04:16:43.514Z,64.19
2023-03-29T04:17:43.456Z,63.92
2023-03-29T04:18:43.486Z,64.06
2023-03-29T04:19:43.547Z,64.15
2023-03-29T04:20:43.673Z,64.40
2023-03-29T04:21:43.728Z,64.16
2023-03-29T04:22:43.884Z,64.17
2023-03-29T04:23:43.957Z,63.98
2023-03-29T04:24:44.076Z,64.09
2023-03-29T04:25:44.247Z,64.19
2023-03-29T04:26:44.307Z,64.21
2023-03-29T04:27:44.428Z,64.17
2023-03-29T04:28:44.523Z,64.15
2023-03-29T04:29:44.648Z,64.46
2023-03-29T04:30:44.785Z,64.50
2023-03-29T04:31:44.913Z,64.24
2023-03-29T04:32:45.077Z,64.49
2023-03-29T04:33:45.092Z,64.26
2023-03-29T04:34:45.228Z,64.48
2023-03-29T04:35:45.376Z,64.57
2023-03-29T04:36:45.465Z,64.36
2023-03-29T04:37:45.683Z,64.40
2023-03-29T04:38:47.805Z,64.48
2023-03-29T04:39:45.793Z,64.33
2023-03-29T04:40:45.942Z,64.31
2023-03-29T04:41:46.025Z,64.57
2023-03-29T04:42:46.149Z,64.70
2023-03-29T04:43:46.329Z,65.14
2023-03-29T04:44:46.395Z,64.77
2023-03-29T04:45:46.491Z,64.88
2023-03-29T04:46:46.674Z,65.01
2023-03-29T04:47:46.772Z,65.01
2023-03-29T04:48:46.879Z,65.29
2023-03-29T04:49:46.949Z,65.11
2023-03-29T04:50:47.063Z,65.12
2023-03-29T04:51:47.162Z,65.06
2023-03-29T04:52:47.338Z,65.29
2023-03-29T04:53:47.424Z,65.38
2023-03-29T04:54:47.501Z,65.45
2023-03-29T04:55:47.616Z,65.45
2023-03-29T04:56:47.743Z,65.44
2023-03-29T04:57:47.851Z,65.31
2023-03-29T04:58:47.947Z,65.30
2023-03-29T04:59:48.108Z,65.32
2023-03-29T05:00:48.184Z,65.44
2023-03-29T05:01:48.355Z,65.38
2023-03-29T05:02:48.443Z,65.52
2023-03-29T05:03:48.573Z,65.54
2023-03-29T05:04:48.734Z,65.44
2023-03-29T05:05:48.723Z,65.67
2023-03-29T05:06:48.838Z,65.50
2023-03-29T05:07:48.981Z,65.53
2023-03-29T05:08:49.086Z,65.46
2023-03-29T05:09:49.227Z,65.58
2023-03-29T05:10:49.315Z,65.43
2023-03-29T05:11:49.448Z,65.68
2023-03-29T05:12:49.544Z,65.55
2023-03-29T05:13:49.649Z,65.76
2023-03-29T05:14:49.837Z,65.71
2023-03-29T05:15:50.029Z,65.98
2023-03-29T05:16:50.008Z,65.76
2023-03-29T05:17:50.162Z,65.94
2023-03-29T05:18:50.269Z,65.69
2023-03-29T05:19:50.453Z,66.12
2023-03-29T05:20:50.464Z,65.98
2023-03-29T05:21:50.601Z,65.97
2023-03-29T05:22:50.694Z,66.00
2023-03-29T05:23:50.808Z,66.16
2023-03-29T05:24:50.917Z,66.13
2023-03-29T05:25:51.054Z,66.30
2023-03-29T05:26:51.131Z,66.50
2023-03-29T05:27:51.316Z,66.28
2023-03-29T05:28:51.357Z,66.52
2023-03-29T05:29:51.468Z,66.45
2023-03-29T05:30:51.600Z,66.60
2023-03-29T05:31:51.780Z,66.59
2023-03-29T05:32:51.848Z,66.56
2023-03-29T05:33:51.958Z,66.48
2023-03-29T05:34:52.076Z,66.75
2023-03-29T05:35:52.237Z,66.84
2023-03-29T05:36:52.311Z,66.81
2023-03-29T05:37:52.364Z,66.70
2023-03-29T05:38:52.493Z,66.75
2023-03-29T05:39:52.644Z,67.03
2023-03-29T05:40:52.741Z,66.84
2023-03-29T05:41:52.851Z,67.04
2023-03-29T05:42:52.954Z,66.97
2023-03-29T05:43:53.065Z,67.06
2023-03-29T05:44:54.479Z,67.12
2023-03-29T05:45:53.425Z,67.02
2023-03-29T05:46:53.427Z,67.11
2023-03-29T05:47:53.538Z,67.05
2023-03-29T05:48:53.628Z,66.95
2023-03-29T05:49:53.759Z,67.01
2023-03-29T05:50:53.875Z,66.99
2023-03-29T05:51:53.998Z,67.04
2023-03-29T05:52:54.099Z,67.02
2023-03-29T05:53:54.244Z,67.09
2023-03-29T05:54:54.358Z,67.07
2023-03-29T05:55:54.446Z,66.99
2023-03-29T05:56:54.619Z,67.14
2023-03-29T05:57:54.650Z,67.30
2023-03-29T05:58:55.136Z,67.08
2023-03-29T05:59:54.868Z,67.40
2023-03-29T06:00:54.971Z,67.34
2023-03-29T06:01:55.158Z,67.36
2023-03-29T06:02:57.618Z,67.51
2023-03-29T06:03:56.444Z,68.02
2023-03-29T06:04:55.599Z,67.98
2023-03-29T06:05:55.528Z,68.05
2023-03-29T06:06:55.720Z,67.98
2023-03-29T06:07:55.789Z,68.12
2023-03-29T06:08:55.909Z,68.33
2023-03-29T06:09:56.020Z,68.08
2023-03-29T06:10:56.132Z,68.07
2023-03-29T06:11:56.299Z,68.02
2023-03-29T06:12:56.416Z,67.95
2023-03-29T06:13:56.493Z,68.23
2023-03-29T06:14:56.653Z,68.14
2023-03-29T06:15:56.697Z,68.16
2023-03-29T06:16:56.935Z,68.00
2023-03-29T06:17:57.032Z,68.32
2023-03-29T06:18:57.048Z,68.19
2023-03-29T06:19:57.150Z,68.10
2023-03-29T06:20:57.270Z,68.20
2023-03-29T06:21:57.431Z,68.25
2023-03-29T06:22:57.489Z,68.34
2023-03-29T06:23:57.599Z,68.34
2023-03-29T06:24:57.708Z,68.03
2023-03-29T06:25:57.876Z,68.07
2023-03-29T06:26:57.989Z,68.12
2023-03-29T06:27:58.051Z,68.21
2023-03-29T06:28:58.165Z,67.96
2023-03-29T06:29:58.268Z,68.11
2023-03-29T06:30:58.445Z,68.22
2023-03-29T06:31:58.561Z,68.31
2023-03-29T06:32:58.633Z,68.47
2023-03-29T06:33:58.793Z,68.26
2023-03-29T06:34:58.951Z,68.23
2023-03-29T06:35:58.988Z,68.28
2023-03-29T06:36:59.140Z,68.36
2023-03-29T06:37:59.179Z,68.22
2023-03-29T06:38:59.341Z,68.12
2023-03-29T06:39:59.417Z,68.45
2023-03-29T06:40:59.637Z,68.31
2023-03-29T06:42:02.091Z,68.27
2023-03-29T06:43:00.777Z,68.48
2023-03-29T06:43:59.891Z,68.45
2023-03-29T06:44:59.957Z,68.54
2023-03-29T06:46:00.143Z,68.40
2023-03-29T06:47:00.209Z,68.26
2023-03-29T06:48:00.426Z,68.11
2023-03-29T06:49:00.433Z,68.33
2023-03-29T06:50:00.510Z,68.27
2023-03-29T06:51:00.940Z,68.27
2023-03-29T06:52:00.799Z,68.41
2023-03-29T06:53:00.848Z,68.52
2023-03-29T06:54:01.088Z,68.47
2023-03-29T06:55:01.139Z,68.62
2023-03-29T06:56:01.205Z,68.43
2023-03-29T06:57:01.346Z,68.55
2023-03-29T06:58:02.676Z,68.25
2023-03-29T06:59:01.510Z,68.15
2023-03-29T07:00:01.663Z,68.15
2023-03-29T07:01:01.941Z,67.98
2023-03-29T07:02:01.936Z,67.50
2023-03-29T07:03:02.070Z,67.75
2023-03-29T07:04:02.127Z,67.53
2023-03-29T07:05:02.195Z,67.66
2023-03-29T07:06:02.307Z,67.25
2023-03-29T07:07:02.430Z,67.02
2023-03-29T07:08:02.583Z,67.75
2023-03-29T07:09:02.626Z,67.59
2023-03-29T07:10:02.779Z,67.34
2023-03-29T07:11:03.385Z,67.83
2023-03-29T07:12:03.029Z,67.65
2023-03-29T07:13:03.131Z,67.53
2023-03-29T07:14:03.245Z,67.84
2023-03-29T07:15:03.386Z,67.76
2023-03-29T07:16:03.547Z,67.45
2023-03-29T07:17:03.576Z,67.47
2023-03-29T07:18:03.792Z,67.34
2023-03-29T07:19:03.854Z,67.70
2023-03-29T07:20:03.894Z,67.68
2023-03-29T07:21:04.312Z,67.83
2023-03-29T07:22:04.132Z,67.56
2023-03-29T07:23:04.246Z,67.83
2023-03-29T07:24:04.390Z,67.73
2023-03-29T07:25:04.509Z,68.04
2023-03-29T07:26:04.695Z,67.89
2023-03-29T07:27:05.126Z,67.91
2023-03-29T07:28:04.843Z,67.73
2023-03-29T07:29:05.019Z,68.10
2023-03-29T07:30:05.067Z,68.00
2023-03-29T07:31:05.196Z,68.26
2023-03-29T07:32:05.275Z,67.79
2023-03-29T07:33:05.470Z,68.14
2023-03-29T07:34:05.549Z,67.66
2023-03-29T07:35:05.713Z,67.86
2023-03-29T07:36:05.720Z,68.13
2023-03-29T07:37:05.847Z,67.96
2023-03-29T07:38:05.923Z,67.93
2023-03-29T07:39:06.121Z,68.06
2023-03-29T07:40:06.128Z,67.75
2023-03-29T07:41:06.231Z,67.71
2023-03-29T07:42:06.340Z,68.04
2023-03-29T07:43:06.464Z,67.85
2023-03-29T07:44:06.595Z,67.53
2023-03-29T07:45:06.699Z,67.73
2023-03-29T07:46:06.971Z,67.82
2023-03-29T07:47:06.969Z,67.87
2023-03-29T07:48:07.142Z,67.73
2023-03-29T07:49:07.143Z,67.41
2023-03-29T07:50:07.254Z,67.63
2023-03-29T07:51:07.378Z,67.46
2023-03-29T07:52:07.469Z,67.41
2023-03-29T07:53:07.604Z,67.43
2023-03-29T07:54:07.681Z,67.08
2023-03-29T07:55:08.032Z,67.70
2023-03-29T07:56:07.911Z,67.04
2023-03-29T07:57:08.062Z,67.29
2023-03-29T07:58:08.127Z,67.12
2023-03-29T07:59:08.309Z,67.00
2023-03-29T08:00:08.403Z,67.30
2023-03-29T08:01:08.636Z,67.46
2023-03-29T08:02:08.644Z,67.21
2023-03-29T08:03:08.908Z,67.19
2023-03-29T08:04:09.038Z,67.22
2023-03-29T08:05:09.229Z,67.36
2023-03-29T08:06:09.222Z,66.97
2023-03-29T08:07:09.319Z,66.84
2023-03-29T08:08:09.816Z,67.42
2023-03-29T08:09:09.601Z,67.46
2023-03-29T08:10:09.713Z,67.21
2023-03-29T08:11:09.911Z,66.52
2023-03-29T08:12:10.001Z,66.84
2023-03-29T08:13:10.100Z,67.03
2023-03-29T08:14:10.186Z,66.70
2023-03-29T08:15:10.361Z,66.64
2023-03-29T08:16:10.419Z,66.45
2023-03-29T08:17:10.591Z,66.96
2023-03-29T08:18:10.786Z,67.22
2023-03-29T08:19:10.855Z,66.96
2023-03-29T08:20:10.960Z,67.01
2023-03-29T08:21:11.104Z,66.36
2023-03-29T08:22:11.219Z,67.29
2023-03-29T08:23:11.338Z,66.91
2023-03-29T08:24:11.447Z,66.99
2023-03-29T08:25:11.643Z,67.08
2023-03-29T08:26:11.725Z,66.65
2023-03-29T08:27:11.803Z,67.19
2023-03-29T08:28:11.984Z,67.35
2023-03-29T08:29:12.143Z,67.07
2023-03-29T08:30:12.218Z,66.84
2023-03-29T08:31:12.405Z,66.84
2023-03-29T08:32:12.433Z,67.23
2023-03-29T08:33:12.584Z,66.53
2023-03-29T08:34:12.640Z,66.65
2023-03-29T08:35:12.879Z,66.82
2023-03-29T08:36:12.913Z,67.17
2023-03-29T08:37:12.993Z,67.35
2023-03-29T08:38:13.113Z,67.11
2023-03-29T08:39:13.211Z,66.73
2023-03-29T08:40:13.320Z,66.46
2023-03-29T08:41:13.527Z,67.08
2023-03-29T08:42:13.587Z,66.77
2023-03-29T08:43:13.762Z,66.22
2023-03-29T08:44:13.855Z,66.63
2023-03-29T08:45:13.953Z,66.97
2023-03-29T08:46:14.168Z,65.90
2023-03-29T08:47:14.194Z,66.21
2023-03-29T08:48:14.391Z,66.38
2023-03-29T08:49:14.490Z,66.08
2023-03-29T08:50:14.691Z,65.74
2023-03-29T08:51:14.819Z,65.86
2023-03-29T08:52:14.901Z,65.68
2023-03-29T08:53:15.011Z,66.05
2023-03-29T08:54:15.103Z,65.92
2023-03-29T08:55:15.338Z,66.16
2023-03-29T08:56:15.446Z,66.13
2023-03-29T08:57:15.585Z,65.94
2023-03-29T08:58:15.655Z,65.94
2023-03-29T08:59:15.780Z,65.90
2023-03-29T09:00:15.882Z,65.93
2023-03-29T09:01:16.139Z,66.13
2023-03-29T09:02:16.191Z,66.77
2023-03-29T09:03:16.314Z,66.40
2023-03-29T09:04:16.372Z,65.98
2023-03-29T09:05:16.476Z,66.12
2023-03-29T09:06:16.623Z,66.36
2023-03-29T09:07:16.738Z,66.30
2023-03-29T09:08:16.859Z,66.36
2023-03-29T09:09:17.010Z,66.68
2023-03-29T09:10:17.082Z,66.63
2023-03-29T09:11:17.196Z,66.76
2023-03-29T09:12:17.308Z,66.42
2023-03-29T09:13:17.543Z,66.04
2023-03-29T09:14:17.548Z,66.21
2023-03-29T09:15:17.723Z,65.93
2023-03-29T09:16:17.854Z,66.03
2023-03-29T09:17:17.898Z,66.50
2023-03-29T09:18:18.061Z,65.80
2023-03-29T09:19:18.220Z,65.23
2023-03-29T09:20:18.299Z,65.40
2023-03-29T09:21:18.375Z,64.88
2023-03-29T09:22:18.504Z,65.35
2023-03-29T09:23:18.590Z,66.18
2023-03-29T09:24:18.802Z,65.20
2023-03-29T09:25:18.842Z,65.05
2023-03-29T09:26:18.965Z,65.65
2023-03-29T09:27:19.103Z,65.15
2023-03-29T09:28:19.230Z,65.85
2023-03-29T09:29:19.330Z,65.60
2023-03-29T09:30:19.499Z,65.74
2023-03-29T09:31:19.684Z,65.75
2023-03-29T09:32:19.772Z,65.62
2023-03-29T09:33:19.851Z,65.85
2023-03-29T09:34:19.960Z,65.23
2023-03-29T09:35:20.134Z,65.27
2023-03-29T09:36:20.161Z,64.84
2023-03-29T09:37:20.399Z,64.82
2023-03-29T09:38:20.455Z,65.60
2023-03-29T09:39:20.582Z,65.29
2023-03-29T09:40:20.684Z,64.82
2023-03-29T09:41:20.863Z,65.51
2023-03-29T09:42:21.011Z,64.75
2023-03-29T09:43:21.065Z,65.02
2023-03-29T09:44:30.344Z,64.80
2023-03-29T09:45:22.874Z,65.66
2023-03-29T09:46:21.524Z,65.09
2023-03-29T09:47:21.545Z,64.47
2023-03-29T09:48:21.680Z,64.69
2023-03-29T09:49:21.836Z,64.73
2023-03-29T09:50:31.095Z,63.98
2023-03-29T09:51:23.123Z,64.29
2023-03-29T09:52:22.239Z,64.10
2023-03-29T09:53:22.360Z,64.67
2023-03-29T09:54:22.494Z,64.64
2023-03-29T09:55:22.616Z,63.79
2023-03-29T09:56:22.750Z,63.78
2023-03-29T09:57:22.884Z,64.21
2023-03-29T09:58:22.984Z,64.58
2023-03-29T09:59:23.133Z,64.53
2023-03-29T10:00:23.365Z,63.70
2023-03-29T10:01:23.473Z,64.07
2023-03-29T10:02:23.565Z,64.22
2023-03-29T10:03:23.662Z,64.02
2023-03-29T10:04:23.873Z,64.40
2023-03-29T10:05:23.896Z,64.61
2023-03-29T10:06:24.047Z,64.52
2023-03-29T10:07:24.134Z,64.83
2023-03-29T10:08:24.224Z,65.06
2023-03-29T10:09:24.359Z,64.53
2023-03-29T10:10:24.554Z,64.57
2023-03-29T10:11:24.614Z,64.76
2023-03-29T10:12:24.788Z,64.32
2023-03-29T10:13:24.909Z,64.05
2023-03-29T10:14:25.004Z,64.54
2023-03-29T10:15:29.602Z,63.97
2023-03-29T10:16:26.348Z,64.39
2023-03-29T10:17:25.484Z,64.29
2023-03-29T10:18:25.568Z,63.70
2023-03-29T10:19:25.671Z,63.35
2023-03-29T10:20:25.876Z,63.13
2023-03-29T10:21:25.987Z,63.45
2023-03-29T10:22:26.090Z,63.21
2023-03-29T10:23:26.194Z,63.62
2023-03-29T10:24:26.361Z,63.13
2023-03-29T10:25:26.482Z,62.71
2023-03-29T10:26:26.662Z,63.15
2023-03-29T10:27:26.743Z,62.61
2023-03-29T10:28:26.873Z,62.71
2023-03-29T10:29:26.989Z,63.02
2023-03-29T10:30:27.114Z,62.84
2023-03-29T10:31:27.308Z,62.79
2023-03-29T10:32:27.413Z,63.36
2023-03-29T10:33:27.481Z,63.57
2023-03-29T10:34:27.615Z,64.16
2023-03-29T10:35:27.826Z,64.12
2023-03-29T10:36:27.881Z,63.68
2023-03-29T10:37:28.011Z,64.24
2023-03-29T10:38:28.109Z,64.23
2023-03-29T10:39:28.294Z,64.21
2023-03-29T10:40:28.390Z,64.12
2023-03-29T10:41:28.487Z,64.03
2023-03-29T10:42:28.640Z,64.15
2023-03-29T10:43:28.778Z,64.59
2023-03-29T10:44:30.881Z,64.47
2023-03-29T10:45:29.031Z,64.40
2023-03-29T10:46:29.225Z,64.30
2023-03-29T10:47:29.358Z,63.92
2023-03-29T10:48:29.480Z,64.22
2023-03-29T10:49:29.647Z,64.57
2023-03-29T10:50:29.681Z,64.33
2023-03-29T10:51:29.825Z,64.25
2023-03-29T10:52:29.977Z,64.43
2023-03-29T10:53:30.102Z,64.15
2023-03-29T10:54:30.209Z,64.28
2023-03-29T10:55:30.412Z,64.18
2023-03-29T10:56:30.439Z,63.96
2023-03-29T10:57:30.661Z,63.88
2023-03-29T10:58:30.692Z,63.60
2023-03-29T10:59:30.889Z,63.91
2023-03-29T11:00:30.975Z,64.03
2023-03-29T11:01:31.204Z,63.64
2023-03-29T11:02:31.314Z,63.47
2023-03-29T11:03:31.484Z,63.45
2023-03-29T11:04:31.598Z,63.72
2023-03-29T11:05:31.606Z,63.41
2023-03-29T11:06:31.768Z,62.84
2023-03-29T11:07:31.953Z,62.69
2023-03-29T11:08:32.165Z,62.76
2023-03-29T11:09:32.084Z,63.31
2023-03-29T11:10:32.223Z,62.44
2023-03-29T11:11:32.314Z,62.84
2023-03-29T11:12:32.509Z,62.55
2023-03-29T11:13:32.658Z,61.97
2023-03-29T11:14:32.749Z,62.63
2023-03-29T11:15:35.519Z,62.87
2023-03-29T11:16:33.047Z,62.73
2023-03-29T11:17:33.174Z,62.43
2023-03-29T11:18:33.258Z,62.12
2023-03-29T11:19:33.364Z,61.89
2023-03-29T11:20:33.577Z,61.99
2023-03-29T11:21:33.634Z,61.57
2023-03-29T11:22:33.715Z,61.05
2023-03-29T11:23:33.876Z,61.30
2023-03-29T11:24:34.014Z,60.14
2023-03-29T11:25:34.153Z,60.49
2023-03-29T11:26:34.267Z,60.68
2023-03-29T11:27:34.467Z,60.18
2023-03-29T11:28:34.542Z,59.94
2023-03-29T11:29:34.645Z,60.50
2023-03-29T11:30:34.914Z,60.54
2023-03-29T11:31:37.211Z,59.67
2023-03-29T11:32:35.033Z,60.02
2023-03-29T11:33:35.174Z,59.96
2023-03-29T11:34:35.314Z,60.26
2023-03-29T11:35:35.477Z,59.91
2023-03-29T11:36:35.533Z,60.96
2023-03-29T11:37:35.657Z,60.41
2023-03-29T11:38:35.844Z,60.08
2023-03-29T11:39:35.894Z,60.54
2023-03-29T11:40:36.023Z,59.83
2023-03-29T11:41:36.118Z,61.27
2023-03-29T11:42:36.224Z,60.37
2023-03-29T11:43:36.317Z,61.15
2023-03-29T11:44:36.452Z,60.24
2023-03-29T11:45:36.598Z,60.77
2023-03-29T11:46:36.755Z,60.79
2023-03-29T11:47:36.847Z,60.93
2023-03-29T11:48:36.982Z,60.45
2023-03-29T11:49:37.082Z,60.67
2023-03-29T11:50:37.226Z,60.76
2023-03-29T11:51:37.359Z,60.88
2023-03-29T11:52:37.511Z,60.62
2023-03-29T11:53:37.843Z,61.25
2023-03-29T11:54:44.777Z,61.57
2023-03-29T11:55:37.983Z,60.48
2023-03-29T11:56:38.137Z,61.46
2023-03-29T11:57:38.130Z,61.06
2023-03-29T11:58:39.075Z,60.41
2023-03-29T11:59:38.344Z,60.39
2023-03-29T12:00:38.476Z,59.96
2023-03-29T12:01:38.668Z,59.74
2023-03-29T12:02:38.903Z,59.97
2023-03-29T12:03:38.980Z,60.50
2023-03-29T12:04:39.004Z,60.03
2023-03-29T12:05:39.141Z,59.88
2023-03-29T12:06:39.258Z,59.47
2023-03-29T12:07:39.361Z,60.06
2023-03-29T12:08:39.555Z,58.63
2023-03-29T12:09:39.665Z,58.03
2023-03-29T12:10:39.769Z,58.09
2023-03-29T12:11:39.879Z,57.37
2023-03-29T12:12:40.017Z,57.43
2023-03-29T12:13:40.162Z,56.89
2023-03-29T12:14:40.239Z,57.55
2023-03-29T12:15:40.384Z,57.09
2023-03-29T12:16:40.546Z,57.25
2023-03-29T12:17:40.672Z,57.41
2023-03-29T12:18:40.965Z,57.19
2023-03-29T12:19:43.203Z,57.29
2023-03-29T12:20:41.022Z,57.46
2023-03-29T12:21:41.192Z,57.78
2023-03-29T12:22:41.306Z,58.14
2023-03-29T12:23:43.046Z,58.75
2023-03-29T12:24:41.568Z,57.64
2023-03-29T12:25:41.673Z,58.24
2023-03-29T12:26:41.795Z,58.33
2023-03-29T12:27:41.890Z,58.49
2023-03-29T12:28:42.071Z,59.02
2023-03-29T12:29:42.164Z,58.20
2023-03-29T12:30:42.281Z,58.23
2023-03-29T12:31:42.411Z,58.50
2023-03-29T12:32:42.622Z,57.94
2023-03-29T12:33:42.660Z,57.80
2023-03-29T12:34:42.785Z,58.31
2023-03-29T12:35:42.915Z,58.41
2023-03-29T12:36:43.037Z,58.26
2023-03-29T12:37:43.118Z,57.91
2023-03-29T12:38:43.261Z,58.55
2023-03-29T12:39:43.434Z,58.28
2023-03-29T12:40:43.610Z,59.00
2023-03-29T12:41:43.653Z,57.93
2023-03-29T12:42:43.806Z,58.29
2023-03-29T12:43:43.910Z,57.98
2023-03-29T12:44:44.071Z,57.87
2023-03-29T12:45:44.264Z,58.54
2023-03-29T12:46:44.375Z,57.73
2023-03-29T12:47:44.489Z,58.85
2023-03-29T12:48:44.559Z,59.03
2023-03-29T12:49:44.681Z,58.43
2023-03-29T12:50:44.897Z,58.65
2023-03-29T12:51:45.004Z,58.90
2023-03-29T12:52:45.078Z,58.33
2023-03-29T12:53:45.229Z,58.05